Time;durP1;ratioP1;P1;durP2;ratioP2;P2;SDS_P1;SDS_P2;PMS_P1;PMS_P2;Temp;Humidity;BMP_temperature;BMP_pressure;BME280_temperature;BME280_humidity;BME280_pressure;Samples;Min_cycle;Max_cycle;Signal;HPM_P1;HPM_P2
2020/12/07 00:00:11;;;;;;;;;;;3.00;99.90;;;1.21;94.07;93756.19;10409443;28;1837;-84
2020/12/07 00:05:13;;;;;;;;;;;3.80;99.90;;;1.16;94.10;93769.44;10408223;28;1380;-83
2020/12/07 00:10:16;;;;;;;;;;;2.30;99.90;;;1.20;93.83;93759.91;10414795;28;2003;-84
2020/12/07 00:15:17;;;;;;;;;;;3.20;99.90;;;1.17;94.26;93753.28;10408119;28;2026;-82
2020/12/07 00:20:19;;;;;;;;;;;2.60;99.90;;;1.22;93.88;93781.63;10404544;28;1696;-85
2020/12/07 00:25:23;;;;;;;;;;;3.50;99.90;;;1.28;94.28;93807.03;10409351;28;1951;-83
2020/12/07 00:30:25;;;;;;;;;;;2.20;99.90;;;1.33;93.74;93812.31;10408948;28;1918;-85
2020/12/07 00:35:29;;;;;;;;;;;2.30;99.90;;;1.34;94.13;93793.53;10415044;28;1863;-84
2020/12/07 00:40:32;;;;;;;;;;;2.50;99.90;;;1.29;93.34;93801.47;10411136;28;1870;-85
2020/12/07 00:45:34;;;;;;;;;;;2.30;99.90;;;1.31;93.41;93814.44;10411045;28;2030;-84
2020/12/07 00:50:36;;;;;;;;;;;2.30;99.90;;;1.36;93.59;93790.63;10407154;28;1989;-84
2020/12/07 00:55:37;;;;;;;;;;;2.40;99.90;;;1.37;93.70;93816.03;10398891;28;1951;-84
2020/12/07 01:00:39;;;;;;;;;;;3.00;99.90;;;1.42;93.34;93815.25;10421347;28;1988;-82
2020/12/07 01:05:41;;;;;;;;;;;3.30;99.90;;;1.40;93.29;93796.97;10415339;28;1653;-85
2020/12/07 01:10:43;;;;;;;;;;;3.20;99.90;;;1.38;92.71;93777.91;10431417;28;1959;-80
2020/12/07 01:15:44;;;;;;;;;;;2.50;99.90;;;1.39;93.06;93781.34;10432586;28;1797;-84
2020/12/07 01:20:48;;;;;;;;;;;2.50;99.90;;;1.40;92.64;93826.09;10422806;28;1700;-85
2020/12/07 01:25:50;;;;;;;;;;;2.50;99.90;;;1.41;93.08;93846.22;10417148;28;2007;-84
2020/12/07 01:30:52;;;;;;;;;;;2.40;99.90;;;1.46;92.92;93856.00;10408553;28;1978;-85
2020/12/07 01:35:54;;;;;;;;;;;2.40;99.90;;;1.49;92.74;93874.03;10422239;28;1798;-83
2020/12/07 01:40:55;;;;;;;;;;;2.50;99.90;;;1.50;92.47;93855.22;10408420;28;1818;-82
2020/12/07 01:45:57;;;;;;;;;;;2.60;99.90;;;1.48;92.15;93846.75;10408532;28;1542;-84
2020/12/07 01:50:59;;;;;;;;;;;2.50;99.90;;;1.47;92.06;93828.50;10407123;28;1977;-84
2020/12/07 01:56:00;;;;;;;;;;;2.50;99.90;;;1.48;92.80;93825.56;10417464;28;1995;-84
2020/12/07 02:01:05;;;;;;;;;;;2.50;99.90;;;1.48;92.31;93833.50;10404392;28;1981;-83
2020/12/07 02:06:07;;;;;;;;;;;2.40;99.90;;;1.42;92.33;93847.81;10413525;28;1794;-82
2020/12/07 02:11:09;;;;;;;;;;;2.50;99.90;;;1.46;92.61;93853.34;10401015;28;1992;-84
2020/12/07 02:16:11;;;;;;;;;;;2.50;99.90;;;1.45;92.31;93888.84;10410638;28;2026;-84
2020/12/07 02:21:13;;;;;;;;;;;4.10;99.90;;;1.45;92.51;93897.56;10408155;28;1973;-83
2020/12/07 02:26:14;;;;;;;;;;;4.00;99.90;;;1.49;92.84;93922.47;10407050;28;2116;-85
2020/12/07 02:31:16;;;;;;;;;;;4.00;99.90;;;1.50;91.76;93941.81;10399662;28;2118;-82
2020/12/07 02:36:21;;;;;;;;;;;2.50;99.90;;;1.48;91.95;93928.84;10413984;28;2291;-84
2020/12/07 02:41:43;;;;;;;;;;;2.60;99.90;;;1.48;91.86;93944.72;10409131;28;2093;-83
2020/12/07 02:46:44;;;;;;;;;;;2.50;99.90;;;1.50;91.93;93931.22;10400598;28;2019;-83
2020/12/07 02:51:46;;;;;;;;;;;2.50;99.90;;;1.43;91.28;93928.03;10410492;28;2162;-82
2020/12/07 02:56:48;;;;;;;;;;;2.60;99.90;;;1.40;92.32;93955.00;10405515;28;1984;-83
2020/12/07 03:01:50;;;;;;;;;;;2.40;99.90;;;1.36;92.41;93970.63;10414414;28;2060;-85
2020/12/07 03:06:51;;;;;;;;;;;4.30;99.90;;;1.28;92.24;93963.22;10407111;28;2170;-84
2020/12/07 03:11:53;;;;;;;;;;;2.40;99.90;;;0.96;92.04;93945.63;10416797;28;1890;-83
2020/12/07 03:16:55;;;;;;;;;;;2.20;99.90;;;0.57;92.51;93968.13;10405667;28;1851;-83
2020/12/07 03:21:57;;;;;;;;;;;1.80;99.90;;;0.45;93.62;93971.78;10402328;28;2037;-83
2020/12/07 03:26:59;;;;;;;;;;;1.60;99.90;;;0.44;94.13;93964.88;10412439;28;2004;-83
2020/12/07 03:32:00;;;;;;;;;;;1.50;99.90;;;0.53;94.86;93970.50;10415561;28;1929;-83
2020/12/07 03:37:02;;;;;;;;;;;3.10;99.90;;;0.52;94.68;93982.94;10418370;28;1911;-81
2020/12/07 03:42:04;;;;;;;;;;;1.60;99.90;;;0.55;95.31;94000.13;10402653;28;2041;-82
2020/12/07 03:47:06;;;;;;;;;;;1.60;99.90;;;0.63;95.09;94014.72;10408375;28;2023;-84
2020/12/07 03:52:08;;;;;;;;;;;1.60;99.90;;;0.64;95.13;94011.03;10407411;28;1940;-84
2020/12/07 03:57:09;;;;;;;;;;;2.20;99.90;;;0.53;94.87;94018.09;10407263;28;2048;-85
2020/12/07 04:02:11;;;;;;;;;;;3.40;99.90;;;0.47;95.04;94022.53;10411722;28;2024;-85
2020/12/07 04:07:13;;;;;;;;;;;1.60;99.90;;;0.42;94.94;94030.44;10408868;28;2424;-85
2020/12/07 04:12:14;;;;;;;;;;;3.40;99.90;;;0.46;95.13;94023.59;10419163;28;1992;-83
2020/12/07 04:17:16;;;;;;;;;;;1.60;99.90;;;0.33;95.21;94018.75;10414887;28;2155;-86
2020/12/07 04:22:18;;;;;;;;;;;1.50;99.90;;;0.24;94.84;94004.38;10420900;28;2064;-84
2020/12/07 04:27:20;;;;;;;;;;;1.40;99.90;;;0.14;94.98;94004.31;10420120;28;2032;-84
2020/12/07 04:32:22;;;;;;;;;;;2.40;99.90;;;0.06;95.08;94012.69;10417433;28;1820;-85
2020/12/07 04:37:23;;;;;;;;;;;1.30;99.90;;;-0.04;94.98;94011.56;10415059;28;1809;-85
2020/12/07 04:42:25;;;;;;;;;;;1.20;99.90;;;0.06;95.38;94015.31;10408418;28;2140;-83
2020/12/07 04:47:27;;;;;;;;;;;1.20;99.90;;;0.30;95.90;94021.88;10407142;28;1928;-84
2020/12/07 04:52:29;;;;;;;;;;;1.20;99.90;;;0.41;95.77;94028.03;10410575;28;1886;-82
2020/12/07 04:57:31;;;;;;;;;;;1.50;99.90;;;0.45;95.73;94029.16;10404794;28;2008;-83
2020/12/07 05:02:33;;;;;;;;;;;1.50;99.90;;;0.52;95.48;94050.88;10404174;28;1997;-85
2020/12/07 05:07:35;;;;;;;;;;;1.50;99.90;;;0.63;94.75;94062.31;10407733;28;1891;-84
2020/12/07 05:12:39;;;;;;;;;;;1.60;99.90;;;0.62;94.10;94068.66;10405021;28;2079;-84
2020/12/07 05:17:41;;;;;;;;;;;1.70;99.90;;;0.44;93.75;94075.09;10406198;28;2032;-83
2020/12/07 05:22:43;;;;;;;;;;;3.10;99.90;;;0.20;93.94;94077.31;10410523;28;1896;-84
2020/12/07 05:27:45;;;;;;;;;;;1.50;99.90;;;0.08;94.12;94088.00;10412671;28;2044;-83
2020/12/07 05:32:47;;;;;;;;;;;1.30;99.90;;;0.24;94.42;94086.31;10425204;28;2154;-84
2020/12/07 05:37:49;;;;;;;;;;;1.30;99.90;;;0.15;94.67;94095.75;10409941;28;1957;-84
2020/12/07 05:42:51;;;;;;;;;;;1.30;99.90;;;0.05;94.85;94103.56;10412959;28;1975;-83
2020/12/07 05:47:53;;;;;;;;;;;2.50;99.90;;;-0.04;94.45;94101.38;10415252;28;2023;-85
2020/12/07 05:52:55;;;;;;;;;;;1.20;99.90;;;-0.14;94.69;94095.97;10407168;28;1964;-82
2020/12/07 05:57:57;;;;;;;;;;;1.80;99.90;;;-0.14;94.85;94095.16;10410210;28;1889;-84
2020/12/07 06:02:58;;;;;;;;;;;1.00;99.90;;;-0.17;95.29;94095.69;10413183;28;1882;-84
2020/12/07 06:08:00;;;;;;;;;;;1.00;99.90;;;-0.24;95.31;94095.88;10415755;28;1871;-83
2020/12/07 06:13:02;;;;;;;;;;;2.30;99.90;;;-0.22;95.24;94101.69;10401765;28;1861;-82
2020/12/07 06:18:04;;;;;;;;;;;1.00;99.90;;;-0.17;95.57;94111.53;10414032;28;1908;-84
2020/12/07 06:23:08;;;;;;;;;;;2.80;99.90;;;-0.22;95.28;94103.53;10408808;28;1918;-83
2020/12/07 06:28:09;;;;;;;;;;;2.50;99.90;;;-0.28;95.44;94106.13;10414631;28;1969;-83
2020/12/07 06:33:11;;;;;;;;;;;2.20;99.90;;;-0.14;95.36;94116.28;10411951;28;1861;-84
2020/12/07 06:38:15;;;;;;;;;;;0.90;99.90;;;-0.23;95.50;94129.16;10416524;28;1709;-85
2020/12/07 06:43:24;;;;;;;;;;;2.30;99.90;;;-0.19;95.30;94138.19;10412295;28;2096;-84
2020/12/07 06:48:26;;;;;;;;;;;0.90;99.90;;;-0.17;95.93;94154.56;10418466;28;1968;-82
2020/12/07 06:53:41;;;;;;;;;;;0.90;99.90;;;-0.13;95.83;94165.44;10411317;28;1709;-82
2020/12/07 06:58:44;;;;;;;;;;;0.90;99.90;;;-0.04;96.13;94162.13;10413756;28;1838;-84
2020/12/07 07:03:46;;;;;;;;;;;2.20;99.90;;;-0.02;95.98;94186.44;10412709;28;1968;-84
2020/12/07 07:08:47;;;;;;;;;;;2.20;99.90;;;0.16;95.83;94203.03;10419847;28;2020;-85
2020/12/07 07:13:49;;;;;;;;;;;1.10;99.90;;;0.24;95.89;94203.38;10419551;28;1602;-83
2020/12/07 07:18:53;;;;;;;;;;;1.20;99.90;;;0.22;95.41;94192.25;10415596;28;2000;-85
2020/12/07 07:23:55;;;;;;;;;;;1.40;99.90;;;0.29;95.14;94200.00;10402974;28;2272;-86
2020/12/07 07:28:56;;;;;;;;;;;1.60;99.90;;;0.16;95.31;94195.91;10403335;28;1979;-83
2020/12/07 07:33:58;;;;;;;;;;;3.00;99.90;;;0.07;95.04;94205.31;10414730;28;1972;-84
2020/12/07 07:39:00;;;;;;;;;;;1.30;99.90;;;0.05;95.15;94210.03;10413051;28;1562;-83
2020/12/07 07:44:02;;;;;;;;;;;1.30;99.90;;;0.09;95.54;94220.91;10431710;28;1889;-85
2020/12/07 07:49:17;;;;;;;;;;;1.20;99.90;;;0.20;95.57;94210.22;10417802;28;1887;-83
2020/12/07 08:15:47;;;;;;;;;;;1.60;99.90;;;0.67;94.36;94201.72;10408794;28;2019;-82
2020/12/07 08:20:49;;;;;;;;;;;3.50;99.90;;;0.75;94.05;94201.25;10390876;28;1885;-84
2020/12/07 08:25:50;;;;;;;;;;;1.70;99.90;;;0.75;93.89;94201.25;10400645;28;1933;-83
2020/12/07 08:30:52;;;;;;;;;;;2.70;99.90;;;0.81;93.56;94204.75;10396439;28;1943;-85
2020/12/07 08:35:54;;;;;;;;;;;1.90;99.90;;;0.86;93.34;94215.38;10401085;28;2107;-84
2020/12/07 08:40:56;;;;;;;;;;;3.00;99.90;;;0.94;93.75;94233.44;10405502;28;1862;-85
2020/12/07 08:46:00;;;;;;;;;;;2.00;99.90;;;0.92;93.57;94240.84;10407333;28;1760;-83
2020/12/07 08:51:01;;;;;;;;;;;3.20;99.90;;;1.03;93.21;94249.66;10387825;28;2007;-82
2020/12/07 08:56:03;;;;;;;;;;;2.10;99.90;;;1.18;92.42;94254.28;10412101;28;1890;-85
2020/12/07 09:01:05;;;;;;;;;;;2.20;99.90;;;1.17;92.41;94256.13;10403946;28;2023;-85
2020/12/07 09:06:07;;;;;;;;;;;2.70;99.90;;;1.21;92.13;94259.06;10404095;28;2011;-82
2020/12/07 09:11:09;;;;;;;;;;;2.30;99.90;;;1.29;91.95;94253.31;10401228;28;1982;-84
2020/12/07 09:16:11;;;;;;;;;;;2.90;99.90;;;1.29;91.48;94259.41;10412213;28;1830;-83
2020/12/07 09:21:13;;;;;;;;;;;2.80;99.90;;;1.39;90.10;94256.03;10412091;28;1872;-85
2020/12/07 09:26:15;;;;;;;;;;;4.20;99.90;;;1.43;89.69;94270.38;10419494;28;1897;-86
2020/12/07 09:31:16;;;;;;;;;;;2.50;99.90;;;1.47;87.90;94266.19;10420731;28;2019;-86
2020/12/07 09:36:18;;;;;;;;;;;2.60;99.90;;;1.53;87.21;94269.66;10418115;28;1957;-87
2020/12/07 09:41:20;;;;;;;;;;;4.50;99.90;;;1.58;86.97;94259.09;10417410;28;2085;-84
2020/12/07 09:46:22;;;;;;;;;;;2.70;99.90;;;1.64;85.96;94258.06;10418390;28;2072;-85
2020/12/07 09:51:23;;;;;;;;;;;3.10;99.90;;;1.65;86.79;94254.38;10419457;28;1879;-86
2020/12/07 09:56:25;;;;;;;;;;;2.80;99.90;;;1.74;85.44;94255.50;10411742;28;1848;-86
2020/12/07 10:01:29;;;;;;;;;;;3.70;99.90;;;1.80;85.89;94261.63;10419934;28;1951;-85
2020/12/07 10:06:31;;;;;;;;;;;4.50;99.90;;;1.88;85.86;94264.59;10398866;28;1943;-86
2020/12/07 10:11:33;;;;;;;;;;;4.20;99.90;;;2.01;86.09;94273.16;10414344;28;1910;-86
2020/12/07 10:16:35;;;;;;;;;;;3.30;99.90;;;2.26;82.99;94259.22;10413322;28;1981;-86
2020/12/07 10:21:37;;;;;;;;;;;4.60;99.90;;;2.50;83.57;94259.59;10420356;28;1964;-85
2020/12/07 10:26:39;;;;;;;;;;;3.30;99.90;;;2.76;79.88;94260.47;10413881;28;1835;-84
2020/12/07 10:31:40;;;;;;;;;;;5.10;99.90;;;2.90;78.98;94253.59;10420866;28;1972;-84
2020/12/07 10:36:42;;;;;;;;;;;6.00;99.90;;;2.96;80.07;94258.66;10422846;28;1988;-84
2020/12/07 10:41:47;;;;;;;;;;;5.50;99.90;;;3.27;81.97;94234.00;10411934;28;2079;-85
2020/12/07 10:46:49;;;;;;;;;;;4.30;99.90;;;3.44;80.38;94234.53;10412079;28;1976;-85
2020/12/07 10:51:54;;;;;;;;;;;4.20;99.90;;;3.57;80.73;94241.97;10410131;28;2040;-84
2020/12/07 10:56:58;;;;;;;;;;;5.00;99.90;;;3.74;79.58;94228.38;10412569;28;1686;-85
2020/12/07 11:02:01;;;;;;;;;;;4.60;99.90;;;3.75;78.32;94222.81;10421375;28;2013;-86
2020/12/07 11:07:08;;;;;;;;;;;4.80;99.90;;;3.80;80.11;94236.09;10424187;28;1768;-82
2020/12/07 11:12:12;;;;;;;;;;;5.60;99.90;;;3.88;80.06;94232.09;10415258;28;2138;-86
2020/12/07 11:17:14;;;;;;;;;;;6.00;99.90;;;4.06;76.68;94218.22;10426212;28;2010;-85
2020/12/07 11:22:16;;;;;;;;;;;6.00;99.90;;;4.27;76.34;94232.25;10424029;28;1971;-85
2020/12/07 11:27:18;;;;;;;;;;;5.80;99.90;;;4.36;76.41;94247.66;10412944;28;1993;-85
2020/12/07 11:32:20;;;;;;;;;;;5.30;99.90;;;4.62;72.12;94241.16;10415876;28;1613;-85
2020/12/07 11:37:22;;;;;;;;;;;7.00;99.90;;;4.69;75.01;94236.31;10413349;28;1927;-85
2020/12/07 11:42:39;;;;;;;;;;;6.50;99.90;;;4.91;74.67;94237.81;10414594;28;1772;-85
2020/12/07 11:47:42;;;;;;;;;;;5.70;99.90;;;4.72;73.59;94248.31;10400793;28;1977;-84
2020/12/07 11:52:52;;;;;;;;;;;5.70;99.90;;;4.67;71.48;94243.78;10415420;28;2020;-85
2020/12/07 11:57:54;;;;;;;;;;;5.70;99.90;;;4.51;72.61;94234.28;10421477;28;1987;-85
2020/12/07 12:02:56;;;;;;;;;;;5.60;99.90;;;4.57;73.04;94238.50;10412577;28;1865;-84
2020/12/07 12:07:57;;;;;;;;;;;5.60;99.90;;;4.54;73.35;94228.41;10417607;28;1910;-83
2020/12/07 12:12:59;;;;;;;;;;;6.60;99.90;;;4.98;77.25;94217.00;10412901;28;1908;-84
2020/12/07 12:18:01;;;;;;;;;;;5.80;99.90;;;5.32;70.15;94201.03;10407115;28;1873;-83
2020/12/07 12:23:04;;;;;;;;;;;7.40;99.90;;;5.13;71.58;94203.56;10403065;28;2015;-85
2020/12/07 12:28:08;;;;;;;;;;;7.30;99.90;;;4.85;68.99;94199.78;10400008;28;2104;-84
2020/12/07 12:33:10;;;;;;;;;;;6.90;99.90;;;4.42;70.14;94206.66;10409264;28;1958;-84
2020/12/07 12:38:12;;;;;;;;;;;6.20;99.90;;;4.26;72.20;94204.06;10415933;28;1538;-82
2020/12/07 12:43:14;;;;;;;;;;;6.20;99.90;;;4.22;73.61;94208.34;10418475;28;1865;-84
2020/12/07 12:48:16;;;;;;;;;;;5.30;99.90;;;4.04;74.87;94206.25;10428506;28;2056;-84
2020/12/07 12:53:18;;;;;;;;;;;6.60;99.90;;;4.17;73.99;94208.34;10424596;28;2000;-83
2020/12/07 12:58:20;;;;;;;;;;;6.50;99.90;;;4.56;74.13;94219.09;10409290;28;1829;-83
2020/12/07 13:03:28;;;;;;;;;;;5.90;99.90;;;5.03;74.96;94206.31;10416977;28;2015;-83
2020/12/07 13:08:30;;;;;;;;;;;6.20;99.90;;;5.21;65.86;94202.19;10404334;28;2134;-84
2020/12/07 13:13:36;;;;;;;;;;;6.00;99.90;;;4.95;66.32;94201.56;10412811;28;1912;-84
2020/12/07 13:18:45;;;;;;;;;;;6.00;99.90;;;4.49;67.13;94209.81;10398986;28;1955;-82
2020/12/07 13:23:51;;;;;;;;;;;6.20;99.90;;;3.98;70.30;94225.94;10429860;28;2191;-85
2020/12/07 13:28:53;;;;;;;;;;;6.50;99.90;;;3.77;72.43;94231.31;10413232;28;1969;-83
2020/12/07 13:33:55;;;;;;;;;;;6.00;99.90;;;3.70;71.89;94225.47;10411339;28;1669;-83
2020/12/07 13:38:56;;;;;;;;;;;5.40;99.90;;;3.56;74.04;94223.63;10411168;28;1629;-81
2020/12/07 13:43:58;;;;;;;;;;;6.30;99.90;;;3.45;73.64;94212.22;10416615;28;2031;-82
2020/12/07 13:49:01;;;;;;;;;;;4.60;99.90;;;3.45;74.45;94213.03;10406093;28;2012;-82
2020/12/07 13:54:04;;;;;;;;;;;5.60;99.90;;;3.53;72.79;94224.97;10412209;28;1917;-83
2020/12/07 13:59:06;;;;;;;;;;;4.60;99.90;;;3.47;73.51;94242.75;10408357;28;1916;-84
2020/12/07 14:04:18;;;;;;;;;;;4.60;99.90;;;3.54;72.97;94253.13;10396734;28;1916;-84
2020/12/07 14:09:20;;;;;;;;;;;5.80;99.90;;;3.42;72.96;94253.38;10396214;28;1899;-84
2020/12/07 14:14:23;;;;;;;;;;;5.30;99.90;;;3.43;73.01;94243.56;10404748;28;1833;-83
2020/12/07 14:19:29;;;;;;;;;;;4.50;99.90;;;3.39;73.74;94237.19;10401603;28;1780;-84
2020/12/07 14:24:41;;;;;;;;;;;5.30;99.90;;;3.39;74.42;94239.84;10401237;28;1830;-84
2020/12/07 14:40:22;;;;;;;;;;;4.40;99.90;;;3.36;75.10;94229.75;10399510;28;1992;-82
2020/12/07 14:45:26;;;;;;;;;;;5.50;99.90;;;3.33;73.95;94220.47;10398237;28;1800;-82
2020/12/07 14:50:32;;;;;;;;;;;4.40;99.90;;;3.36;75.42;94221.78;10412190;28;1987;-83
2020/12/07 14:55:37;;;;;;;;;;;5.80;99.90;;;3.34;73.97;94215.94;10403953;28;1991;-83
2020/12/07 15:06:01;;;;;;;;;;;5.10;99.90;;;3.36;72.31;94221.78;10399512;28;2209;-84
2020/12/07 15:11:28;;;;;;;;;;;4.40;99.90;;;3.17;73.61;94230.25;10399487;28;1963;-83
2020/12/07 15:16:30;;;;;;;;;;;6.30;99.90;;;2.95;74.85;94237.69;10408048;28;1982;-84
2020/12/07 15:21:32;;;;;;;;;;;5.40;99.90;;;2.83;75.96;94234.47;10411402;28;1973;-83
2020/12/07 15:26:34;;;;;;;;;;;5.90;99.90;;;2.87;75.30;94227.59;10396600;28;1849;-83
2020/12/07 15:31:36;;;;;;;;;;;3.90;99.90;;;2.86;76.11;94220.66;10397219;28;2056;-82
2020/12/07 15:36:37;;;;;;;;;;;5.10;99.90;;;2.77;76.27;94216.94;10398401;28;1917;-83
2020/12/07 15:41:39;;;;;;;;;;;3.90;99.90;;;2.71;75.32;94213.50;10407138;28;1716;-84
2020/12/07 15:46:41;;;;;;;;;;;3.80;99.90;;;2.65;75.74;94217.97;10395813;28;2235;-84
2020/12/07 15:51:43;;;;;;;;;;;3.80;99.90;;;2.62;75.68;94220.38;10383703;28;2035;-83
2020/12/07 15:56:45;;;;;;;;;;;3.80;99.90;;;2.61;76.03;94224.88;10399059;28;1792;-82
2020/12/07 16:01:54;;;;;;;;;;;3.70;99.90;;;2.59;76.19;94224.34;10404377;28;1814;-83
2020/12/07 16:06:55;;;;;;;;;;;3.70;99.90;;;2.63;76.28;94225.41;10423799;28;1917;-86
2020/12/07 16:11:59;;;;;;;;;;;3.80;99.90;;;2.73;76.38;94232.59;10402856;28;1969;-83
2020/12/07 16:17:01;;;;;;;;;;;3.70;99.90;;;2.78;76.47;94229.94;10393516;28;1999;-81
2020/12/07 16:22:03;;;;;;;;;;;4.10;99.90;;;2.77;77.13;94235.53;10396933;28;1853;-82
2020/12/07 16:27:04;;;;;;;;;;;3.80;99.90;;;2.75;77.97;94235.78;10407055;28;2084;-85
2020/12/07 16:32:06;;;;;;;;;;;4.30;99.90;;;2.55;79.81;94241.06;10420840;28;2262;-83
2020/12/07 16:37:08;;;;;;;;;;;3.50;99.90;;;2.34;80.91;94240.16;10446486;28;1655;-83
2020/12/07 16:42:10;;;;;;;;;;;3.60;99.90;;;2.27;81.15;94235.09;10415983;28;1928;-84
2020/12/07 16:47:12;;;;;;;;;;;3.40;99.90;;;2.06;82.45;94225.47;10416779;28;1495;-82
2020/12/07 16:52:14;;;;;;;;;;;4.40;99.90;;;1.82;83.53;94217.91;10425308;28;1969;-84
2020/12/07 16:57:16;;;;;;;;;;;3.00;99.90;;;1.60;84.64;94215.44;10399684;28;2235;-83
2020/12/07 17:02:31;;;;;;;;;;;3.80;99.90;;;1.39;86.24;94232.22;10402350;28;1927;-83
2020/12/07 17:07:50;;;;;;;;;;;2.60;99.90;;;1.30;86.39;94239.03;10401579;28;1589;-83
2020/12/07 17:12:54;;;;;;;;;;;2.50;99.90;;;1.29;86.26;94242.75;10412878;28;1967;-84
2020/12/07 17:18:01;;;;;;;;;;;3.20;99.90;;;1.26;86.48;94237.94;10411190;28;2020;-85
2020/12/07 17:23:06;;;;;;;;;;;2.30;99.90;;;1.16;86.00;94246.59;10397649;28;2347;-83
2020/12/07 17:28:09;;;;;;;;;;;3.80;99.90;;;1.01;86.54;94249.91;10403434;28;1986;-82
2020/12/07 17:33:13;;;;;;;;;;;2.10;99.90;;;0.92;87.18;94250.63;10407343;28;1868;-82
2020/12/07 17:38:15;;;;;;;;;;;3.60;99.90;;;1.02;86.42;94256.81;10413888;28;1737;-83
2020/12/07 17:43:18;;;;;;;;;;;2.00;99.90;;;1.05;86.36;94261.59;10418826;28;1998;-83
2020/12/07 17:48:21;;;;;;;;;;;2.00;99.90;;;1.04;86.74;94253.91;10408549;28;2071;-84
2020/12/07 17:53:23;;;;;;;;;;;3.80;99.90;;;1.05;86.39;94250.22;10422846;28;1854;-84
2020/12/07 17:58:26;;;;;;;;;;;4.10;99.90;;;1.13;85.48;94251.59;10424659;28;2055;-85
2020/12/07 18:03:32;;;;;;;;;;;2.30;99.90;;;1.03;85.87;94236.44;10423893;28;1996;-83
2020/12/07 18:08:35;;;;;;;;;;;3.60;99.90;;;1.01;86.05;94239.31;10425132;28;1890;-84
2020/12/07 18:13:37;;;;;;;;;;;2.10;99.90;;;0.68;86.82;94244.81;10424364;28;1507;-84
2020/12/07 18:18:39;;;;;;;;;;;1.90;99.90;;;0.52;87.27;94246.53;10429224;28;1590;-84
2020/12/07 18:23:41;;;;;;;;;;;1.60;99.90;;;0.44;87.78;94250.38;10415923;28;1249;-84
2020/12/07 18:28:43;;;;;;;;;;;1.50;99.90;;;0.27;88.28;94247.03;10415450;28;1895;-84
2020/12/07 18:33:45;;;;;;;;;;;2.40;99.90;;;0.24;88.71;94239.59;10430498;28;1569;-84
2020/12/07 18:38:47;;;;;;;;;;;1.30;99.90;;;0.15;88.93;94247.16;10419441;28;1289;-84
2020/12/07 18:43:49;;;;;;;;;;;1.30;99.90;;;0.13;89.39;94249.25;10418366;28;1595;-84
2020/12/07 18:48:51;;;;;;;;;;;1.30;99.90;;;0.05;89.44;94246.22;10408271;28;1992;-85
2020/12/07 18:53:53;;;;;;;;;;;3.50;99.90;;;-0.02;89.99;94252.47;10414001;28;1598;-83
2020/12/07 18:58:55;;;;;;;;;;;1.10;99.90;;;-0.09;90.03;94262.44;10426076;28;1776;-85
2020/12/07 19:04:01;;;;;;;;;;;2.60;99.90;;;-0.16;91.00;94261.81;10410112;28;1616;-85
2020/12/07 19:09:03;;;;;;;;;;;2.00;99.90;;;-0.17;90.66;94254.94;10400907;28;1985;-84
2020/12/07 19:14:05;;;;;;;;;;;1.20;99.90;;;-0.16;90.87;94259.16;10412187;28;1835;-85
2020/12/07 19:19:07;;;;;;;;;;;2.90;99.90;;;-0.17;90.78;94248.84;10410457;28;1491;-84
2020/12/07 19:24:09;;;;;;;;;;;0.90;99.90;;;-0.19;91.27;94243.81;10411274;28;1663;-83
2020/12/07 19:29:11;;;;;;;;;;;2.60;99.90;;;-0.26;91.47;94237.88;10407854;28;1995;-84
2020/12/07 19:34:13;;;;;;;;;;;0.90;99.90;;;-0.27;91.38;94237.09;10414425;28;1321;-83
2020/12/07 19:39:15;;;;;;;;;;;2.30;99.90;;;-0.29;91.13;94241.81;10412508;28;1661;-83
2020/12/07 19:44:19;;;;;;;;;;;0.80;99.90;;;-0.37;91.07;94230.91;10407114;28;1697;-83
2020/12/07 19:49:20;;;;;;;;;;;0.80;99.90;;;-0.46;91.66;94224.41;10401581;28;1894;-82
2020/12/07 19:54:22;;;;;;;;;;;0.70;99.90;;;-0.50;92.09;94221.47;10401492;28;1824;-83
2020/12/07 19:59:25;;;;;;;;;;;1.60;99.90;;;-0.50;92.09;94232.03;10422612;28;1668;-84
2020/12/07 20:04:28;;;;;;;;;;;0.60;99.90;;;-0.41;92.37;94235.06;10406649;28;1721;-83
2020/12/07 20:09:30;;;;;;;;;;;0.70;99.90;;;-0.24;91.79;94233.19;10403998;28;1895;-82
2020/12/07 20:14:33;;;;;;;;;;;0.70;99.90;;;-0.19;91.41;94227.16;10412339;28;1542;-84
2020/12/07 20:19:35;;;;;;;;;;;2.60;99.90;;;-0.26;91.19;94222.03;10416135;28;1249;-83
2020/12/07 20:24:36;;;;;;;;;;;0.80;99.90;;;-0.27;91.56;94229.16;10402805;28;1720;-85
2020/12/07 20:29:39;;;;;;;;;;;1.70;99.90;;;-0.26;91.27;94232.59;10409911;28;1906;-85
2020/12/07 20:34:41;;;;;;;;;;;2.80;99.90;;;-0.23;91.13;94232.13;10400832;28;1336;-84
2020/12/07 20:39:43;;;;;;;;;;;2.20;99.90;;;-0.29;91.25;94231.25;10408968;28;1633;-84
2020/12/07 20:44:44;;;;;;;;;;;0.80;99.90;;;-0.18;91.21;94226.94;10399178;28;1422;-83
2020/12/07 20:49:47;;;;;;;;;;;0.80;99.90;;;-0.17;90.92;94233.00;10391673;28;1898;-84
2020/12/07 20:54:49;;;;;;;;;;;2.50;99.90;;;-0.13;90.47;94224.31;10417056;28;1685;-82
2020/12/07 20:59:51;;;;;;;;;;;0.90;99.90;;;-0.22;90.56;94228.44;10411472;28;1479;-82
2020/12/07 21:04:52;;;;;;;;;;;2.50;99.90;;;-0.30;90.98;94234.16;10399293;28;1535;-83
2020/12/07 21:09:55;;;;;;;;;;;1.20;99.90;;;-0.32;91.42;94234.41;10403904;28;1963;-82
2020/12/07 21:14:57;;;;;;;;;;;2.30;99.90;;;-0.35;91.31;94205.84;10404580;28;1542;-83
2020/12/07 21:19:59;;;;;;;;;;;2.10;99.90;;;-0.48;91.42;94208.03;10417377;28;1225;-83
2020/12/07 21:25:00;;;;;;;;;;;0.60;99.90;;;-0.48;91.68;94206.19;10419827;28;1689;-83
2020/12/07 21:30:03;;;;;;;;;;;0.20;99.90;;;-0.41;91.97;94227.13;10409585;28;2000;-83
2020/12/07 21:35:05;;;;;;;;;;;2.30;99.90;;;-0.32;90.98;94230.94;10401449;28;1542;-81
2020/12/07 21:40:06;;;;;;;;;;;1.80;99.90;;;-0.29;90.95;94227.81;10410957;28;1356;-84
2020/12/07 21:45:08;;;;;;;;;;;1.90;99.90;;;-0.21;90.77;94227.41;10400850;28;1871;-82
2020/12/07 21:50:13;;;;;;;;;;;2.20;99.90;;;-0.13;90.13;94226.16;10407320;28;1985;-83
2020/12/07 21:55:21;;;;;;;;;;;1.70;99.90;;;-0.13;90.11;94234.88;10409609;28;1570;-83
2020/12/07 22:00:31;;;;;;;;;;;2.50;99.90;;;-0.14;90.48;94225.38;10401083;28;1629;-81
2020/12/07 22:05:36;;;;;;;;;;;2.70;99.90;;;-0.05;90.49;94217.84;10417699;28;1580;-82
2020/12/07 22:10:54;;;;;;;;;;;3.00;99.90;;;0.07;90.60;94220.38;10416900;28;1987;-83
2020/12/07 22:16:19;;;;;;;;;;;0.90;99.90;;;0.12;89.98;94220.41;10404162;28;1642;-83
2020/12/07 22:21:27;;;;;;;;;;;1.00;99.90;;;0.03;90.28;94212.13;10415973;28;1375;-82
2020/12/07 22:26:29;;;;;;;;;;;1.00;99.90;;;0.05;90.38;94211.88;10396503;28;1676;-83
2020/12/07 22:31:30;;;;;;;;;;;1.10;99.90;;;0.16;89.54;94210.94;10409851;28;1887;-84
2020/12/07 22:36:32;;;;;;;;;;;2.70;99.90;;;0.13;89.91;94217.53;10402278;28;1550;-83
2020/12/07 22:41:34;;;;;;;;;;;2.50;99.90;;;0.06;89.51;94221.38;10407852;28;1367;-81
2020/12/07 22:46:36;;;;;;;;;;;1.20;99.90;;;0.05;90.30;94220.59;10427764;28;1789;-83
2020/12/07 22:51:37;;;;;;;;;;;1.10;99.90;;;0.23;89.91;94219.50;10399699;28;1960;-82
2020/12/07 22:56:39;;;;;;;;;;;1.20;99.90;;;0.21;89.71;94218.94;10412965;28;2650;-82
2020/12/07 23:01:41;;;;;;;;;;;2.90;99.90;;;0.26;89.30;94211.09;10414720;28;2079;-83
2020/12/07 23:06:43;;;;;;;;;;;1.30;99.90;;;0.39;89.53;94205.41;10413809;28;2044;-83
2020/12/07 23:11:44;;;;;;;;;;;2.40;99.90;;;0.39;88.76;94201.97;10395393;28;1989;-81
2020/12/07 23:16:47;;;;;;;;;;;1.50;99.90;;;0.40;88.90;94207.00;10390568;28;2125;-82
2020/12/07 23:21:54;;;;;;;;;;;1.50;99.90;;;0.42;88.08;94207.53;10400503;28;1998;-82
2020/12/07 23:27:08;;;;;;;;;;;1.90;99.90;;;0.34;88.71;94215.91;10398834;28;1731;-82
2020/12/07 23:32:14;;;;;;;;;;;1.50;99.90;;;0.31;88.50;94210.31;10406357;28;2004;-83
2020/12/07 23:37:27;;;;;;;;;;;3.10;99.90;;;0.38;88.73;94210.91;10396255;28;1940;-82
2020/12/07 23:42:43;;;;;;;;;;;1.50;99.90;;;0.36;88.64;94213.81;10407976;28;1913;-81
2020/12/07 23:47:54;;;;;;;;;;;1.50;99.90;;;0.32;88.74;94210.09;10388919;28;1858;-82
2020/12/07 23:52:57;;;;;;;;;;;3.30;99.90;;;0.36;88.71;94210.38;10387826;28;1968;-82
2020/12/07 23:58:03;;;;;;;;;;;1.40;99.90;;;0.23;88.48;94203.63;10399523;28;1732;-82
